Time;durP1;ratioP1;P1;durP2;ratioP2;P2;SDS_P1;SDS_P2;PMS_P1;PMS_P2;Temp;Humidity;BMP_temperature;BMP_pressure;BME280_temperature;BME280_humidity;BME280_pressure;Samples;Min_cycle;Max_cycle;Signal;HPM_P1;HPM_P2
2022/06/09 05:50:30;;;;;;;6.22;2.10;;;;;;;16.18;73.69;96355.41;5201191;23;20065;-80
2022/06/09 05:52:58;;;;;;;3.45;2.33;;;;;;;16.22;74.47;96358.38;4863740;29;20552;-79
2022/06/09 05:55:25;;;;;;;6.70;2.10;;;;;;;16.27;73.71;96353.28;4872101;29;20053;-79
2022/06/09 05:57:53;;;;;;;7.22;2.67;;;;;;;16.30;73.91;96355.44;4884657;29;20059;-80
2022/06/09 06:00:21;;;;;;;2.58;2.38;;;;;;;16.33;74.41;96352.34;4870654;29;20056;-80
2022/06/09 07:00:40;;;;;;;3.95;2.30;;;;;;;16.96;68.29;96410.84;5659646;23;20092;-77
2022/06/09 07:03:08;;;;;;;3.20;2.50;;;;;;;17.01;68.86;96411.78;4863282;29;20053;-77
2022/06/09 07:05:49;;;;;;;3.08;2.45;;;;;;;17.11;68.90;96416.47;4863142;29;20054;-77
2022/06/09 07:08:17;;;;;;;3.28;2.15;;;;;;;17.16;67.59;96415.78;4862323;29;20054;-76
2022/06/09 07:10:45;;;;;;;6.15;2.50;;;;;;;17.18;66.11;96435.63;4862440;29;20053;-76
2022/06/09 09:01:28;;;;;;;6.60;1.40;;;;;;;18.27;57.55;96495.81;5943551;23;21137;-79
2022/06/09 09:03:59;;;;;;;7.72;0.95;;;;;;;18.36;56.97;96496.25;4841450;29;20081;-76
2022/06/09 09:06:30;;;;;;;3.58;1.15;;;;;;;18.42;56.20;96499.81;4842164;29;20102;-76
2022/06/09 09:09:06;;;;;;;5.25;1.10;;;;;;;18.47;56.59;96508.63;4842113;29;20118;-76
2022/06/09 09:11:49;;;;;;;2.08;0.70;;;;;;;18.52;55.35;96511.38;4841649;29;20132;-76
2022/06/09 09:14:22;;;;;;;3.25;1.08;;;;;;;18.58;56.57;96511.47;4841980;29;20481;-77
2022/06/09 09:25:04;;;;;;;3.53;0.90;;;;;;;18.80;55.17;96503.72;5950206;23;21018;-79
2022/06/09 09:27:35;;;;;;;4.25;1.00;;;;;;;18.81;55.41;96500.84;4858792;29;20058;-78
2022/06/09 09:30:13;;;;;;;4.88;0.85;;;;;;;18.80;54.29;96509.81;4859949;29;20060;-78
2022/06/09 09:32:44;;;;;;;2.35;0.60;;;;;;;18.83;54.59;96506.72;4843756;29;20049;-77
2022/06/09 09:35:15;;;;;;;3.00;0.80;;;;;;;18.91;55.23;96498.41;4841282;29;20141;-78
2022/06/09 09:37:46;;;;;;;3.17;1.08;;;;;;;18.97;55.40;96504.56;4841945;29;20096;-78
2022/06/09 09:40:23;;;;;;;2.65;0.85;;;;;;;19.02;56.71;96501.22;4843625;29;20145;-77
2022/06/09 09:42:54;;;;;;;4.72;1.20;;;;;;;19.02;55.60;96509.16;4845292;29;20553;-78
2022/06/09 09:45:31;;;;;;;5.00;0.80;;;;;;;18.94;53.92;96511.13;4845479;29;20054;-78
2022/06/09 09:48:01;;;;;;;2.78;0.88;;;;;;;18.91;54.49;96514.28;4845206;29;20311;-77
2022/06/09 09:50:37;;;;;;;4.90;0.50;;;;;;;18.93;55.97;96506.91;4844842;29;20440;-77
2022/06/09 09:53:13;;;;;;;2.05;0.95;;;;;;;18.98;54.29;96518.59;4845351;29;20114;-78
2022/06/09 09:55:52;;;;;;;0.60;0.22;;;;;;;18.93;52.58;96521.94;4844771;29;20136;-78
2022/06/09 09:58:36;;;;;;;3.38;0.82;;;;;;;18.89;53.37;96526.09;4845037;29;20122;-77
2022/06/09 10:01:07;;;;;;;2.38;0.75;;;;;;;18.94;54.41;96521.72;4844889;29;20057;-78
2022/06/09 10:09:56;;;;;;;2.85;1.00;;;;;;;19.19;52.64;96528.47;4854930;29;20195;-78
2022/06/09 10:12:28;;;;;;;2.05;0.75;;;;;;;19.26;52.53;96523.03;4845832;29;20085;-78
2022/06/09 10:14:58;;;;;;;1.55;1.00;;;;;;;19.31;53.19;96526.59;4845241;29;20081;-77
2022/06/09 10:17:50;;;;;;;3.47;1.02;;;;;;;19.34;52.07;96520.00;4845251;29;20148;-77
2022/06/09 10:20:39;;;;;;;2.50;0.93;;;;;;;19.25;51.91;96546.06;4844688;29;20073;-78
2022/06/09 10:23:31;;;;;;;6.28;1.13;;;;;;;19.24;53.10;96535.69;4844436;29;20089;-77
2022/06/09 10:26:03;;;;;;;4.20;0.80;;;;;;;19.27;52.77;96527.31;4844413;29;20058;-77
2022/06/09 10:28:43;;;;;;;2.17;0.75;;;;;;;19.31;52.66;96545.09;4844544;29;20579;-77
2022/06/09 10:31:19;;;;;;;4.72;1.65;;;;;;;19.34;52.63;96546.47;4844291;29;20132;-78
2022/06/09 10:33:52;;;;;;;4.18;1.20;;;;;;;19.29;54.03;96568.34;4844027;29;20054;-78
2022/06/09 10:36:24;;;;;;;1.33;0.30;;;;;;;19.20;51.94;96561.00;4844331;29;20103;-77
2022/06/09 10:38:55;;;;;;;2.08;0.40;;;;;;;19.11;51.74;96565.88;4844272;29;20054;-78
2022/06/09 10:41:35;;;;;;;1.73;0.70;;;;;;;19.04;50.61;96566.03;4843990;29;20086;-78
2022/06/09 10:44:11;;;;;;;2.40;0.95;;;;;;;19.04;52.19;96555.44;4844196;29;20149;-78
2022/06/09 10:55:14;;;;;;;1.38;0.82;;;;;;;19.05;52.80;96565.00;4844290;29;20120;-78
2022/06/09 10:55:27;;;;;;;6.97;1.10;;;;;;;19.14;52.45;96565.44;4843896;29;20740;-77
2022/06/09 10:58:07;;;;;;;3.08;0.90;;;;;;;19.19;53.29;96562.06;4844122;29;20096;-77
2022/06/09 11:00:39;;;;;;;6.35;1.23;;;;;;;19.25;52.64;96561.91;4843842;29;20058;-77
2022/06/09 11:03:14;;;;;;;3.90;0.70;;;;;;;19.29;52.10;96557.75;4843851;29;20115;-78
2022/06/09 11:05:56;;;;;;;2.67;1.10;;;;;;;19.37;52.02;96553.13;4843835;29;20054;-78
2022/06/09 11:08:28;;;;;;;;;;;;;;;19.53;53.00;96552.34;4844424;29;20372;-78
2022/06/09 11:11:02;;;;;;;4.00;1.40;;;;;;;19.66;52.23;96557.31;4843483;29;20391;-77
2022/06/09 11:13:50;;;;;;;2.10;0.98;;;;;;;19.79;53.58;96555.41;4843709;29;20472;-78
2022/06/09 11:16:30;;;;;;;3.10;0.77;;;;;;;19.86;51.11;96548.13;4843599;29;20054;-78
2022/06/09 11:19:32;;;;;;;2.53;0.88;;;;;;;19.83;48.88;96561.81;4843730;29;20058;-77
2022/06/09 11:22:07;;;;;;;2.45;0.77;;;;;;;19.83;50.29;96559.19;4841543;29;20046;-77
2022/06/09 11:24:41;;;;;;;2.28;0.73;;;;;;;19.81;50.31;96553.31;4843604;29;20148;-78
2022/06/09 11:27:26;;;;;;;3.67;1.38;;;;;;;19.73;49.54;96552.69;4843181;29;20058;-78
2022/06/09 11:30:06;;;;;;;2.45;0.50;;;;;;;19.64;49.44;96564.69;4843463;29;20176;-78
2022/06/09 11:32:41;;;;;;;3.58;1.20;;;;;;;19.54;49.28;96556.56;4843827;29;20070;-78
2022/06/09 11:35:21;;;;;;;2.63;0.88;;;;;;;19.44;49.40;96559.03;4843130;29;20060;-78
2022/06/09 11:38:11;;;;;;;3.25;0.70;;;;;;;19.38;50.19;96554.75;4843590;29;20440;-78
2022/06/09 11:40:44;;;;;;;11.23;1.55;;;;;;;19.39;51.48;96549.19;4843178;29;20130;-78
2022/06/09 11:43:39;;;;;;;1.80;0.70;;;;;;;19.50;52.36;96544.88;4843210;29;20401;-78
2022/06/09 11:46:16;;;;;;;1.88;0.77;;;;;;;19.57;50.40;96548.19;4842832;29;20050;-78
2022/06/09 11:48:49;;;;;;;3.08;0.80;;;;;;;19.56;49.62;96546.56;4842895;29;20512;-78
2022/06/09 11:51:17;;;;;;;;;;;;;;;19.54;50.85;96549.44;4843480;29;20092;-78
2022/06/09 11:53:49;;;;;;;3.67;0.70;;;;;;;19.51;50.89;96549.13;4843017;29;20364;-78
2022/06/09 11:56:36;;;;;;;1.67;0.55;;;;;;;19.42;50.62;96545.28;4842889;29;20133;-78
2022/06/09 11:59:15;;;;;;;5.28;0.68;;;;;;;19.37;49.98;96555.75;4842799;29;20114;-77
2022/06/09 12:01:50;;;;;;;3.78;0.70;;;;;;;19.35;50.48;96556.81;4841962;29;20058;-77
2022/06/09 12:04:50;;;;;;;5.22;1.15;;;;;;;19.33;49.89;96555.44;4842466;29;20045;-77
2022/06/09 12:07:29;;;;;;;5.22;1.15;;;;;;;19.31;49.99;96549.59;4842849;29;20504;-77
2022/06/09 12:10:18;;;;;;;1.13;0.52;;;;;;;19.32;50.46;96567.84;4843121;29;20058;-78
2022/06/09 12:13:05;;;;;;;1.10;0.75;;;;;;;19.30;49.75;96569.94;4843123;29;20401;-78
2022/06/09 12:15:35;;;;;;;2.42;0.77;;;;;;;19.32;50.24;96575.78;4843045;29;20053;-78
2022/06/09 12:18:25;;;;;;;1.75;0.73;;;;;;;19.35;50.77;96585.91;4842886;29;20056;-78
2022/06/09 12:21:04;;;;;;;4.93;0.90;;;;;;;19.37;49.26;96584.84;4842702;29;20477;-78
2022/06/09 12:23:34;;;;;;;2.05;0.82;;;;;;;19.39;51.88;96574.84;4843020;29;20054;-78
2022/06/09 12:26:27;;;;;;;3.83;0.90;;;;;;;19.45;49.31;96577.34;4842564;29;20058;-78
2022/06/09 12:29:24;;;;;;;3.30;0.90;;;;;;;19.51;49.59;96575.59;4842916;29;20149;-78
2022/06/09 12:32:36;;;;;;;1.95;0.68;;;;;;;19.57;49.17;96577.28;4840825;29;20065;-78
2022/06/09 12:35:19;;;;;;;3.33;1.47;;;;;;;19.66;48.89;96573.19;4862911;29;20057;-78
2022/06/09 12:37:53;;;;;;;3.50;0.80;;;;;;;19.71;47.91;96575.94;4852531;29;20795;-78
2022/06/09 12:40:24;;;;;;;5.65;0.77;;;;;;;19.75;48.22;96571.78;4846131;29;20053;-79
2022/06/09 12:42:57;;;;;;;1.58;0.75;;;;;;;19.80;48.59;96583.50;4845453;29;20054;-78
2022/06/09 12:45:28;;;;;;;1.27;0.68;;;;;;;19.83;47.31;96567.94;4845452;29;20134;-78
2022/06/09 12:48:01;;;;;;;4.10;0.93;;;;;;;19.91;50.04;96579.97;4845062;29;20050;-78
2022/06/09 12:50:42;;;;;;;2.75;0.80;;;;;;;19.93;46.62;96583.16;4844021;29;20326;-77
2022/06/09 12:53:19;;;;;;;1.98;0.50;;;;;;;19.94;46.84;96579.47;4842647;29;20574;-77
2022/06/09 12:55:53;;;;;;;5.05;0.75;;;;;;;20.00;47.26;96580.34;4842434;29;20061;-77
2022/06/09 12:58:24;;;;;;;3.72;0.60;;;;;;;20.02;47.55;96579.06;4841643;29;20081;-77
2022/06/09 13:00:54;;;;;;;2.70;0.32;;;;;;;19.99;47.10;96587.50;4858737;29;20054;-77
2022/06/09 13:03:26;;;;;;;2.00;0.50;;;;;;;19.95;46.35;96596.97;4856679;29;20061;-77
2022/06/09 13:05:54;;;;;;;2.05;0.95;;;;;;;19.94;46.81;96587.41;4842237;29;20153;-77
2022/06/09 13:08:26;;;;;;;3.80;0.65;;;;;;;19.94;46.83;96598.81;4842867;29;20078;-78
2022/06/09 13:10:58;;;;;;;1.77;0.43;;;;;;;19.99;48.39;96590.16;4843430;29;20137;-77
2022/06/09 13:13:30;;;;;;;3.08;0.60;;;;;;;20.04;47.73;96595.50;4844612;29;20273;-77
2022/06/09 13:16:01;;;;;;;3.55;1.00;;;;;;;20.12;48.38;96610.19;4848273;29;20053;-77
2022/06/09 13:18:34;;;;;;;2.13;0.68;;;;;;;20.13;47.22;96609.94;4848217;29;20058;-77
2022/06/09 13:21:08;;;;;;;1.85;0.60;;;;;;;20.15;45.60;96607.06;4848237;29;20144;-77
2022/06/09 13:23:37;;;;;;;1.10;0.30;;;;;;;20.18;45.20;96606.56;4848233;29;20054;-77
2022/06/09 13:26:08;;;;;;;2.60;0.55;;;;;;;20.18;44.69;96611.84;4847613;29;20058;-77
2022/06/09 13:28:40;;;;;;;1.13;0.60;;;;;;;20.19;44.43;96615.34;4848325;29;20141;-77
2022/06/09 13:31:23;;;;;;;;;;;;;;;20.22;45.18;96617.47;4848557;29;20137;-77
2022/06/09 13:33:54;;;;;;;;;;;;;;;20.23;45.05;96619.91;4848418;29;19935;-77
2022/06/09 13:36:28;;;;;;;3.97;0.85;;;;;;;20.23;45.57;96619.09;4847978;29;20352;-77
2022/06/09 13:38:59;;;;;;;4.30;0.60;;;;;;;20.23;45.04;96629.69;4847751;29;20054;-77
2022/06/09 13:41:38;;;;;;;2.47;1.25;;;;;;;20.27;46.02;96625.50;4847439;29;20054;-77
2022/06/09 13:44:08;;;;;;;8.23;0.98;;;;;;;20.26;45.96;96637.94;4856050;29;20089;-77
2022/06/09 13:46:40;;;;;;;6.10;1.00;;;;;;;20.27;45.71;96625.50;4866028;29;20049;-78
2022/06/09 13:49:21;;;;;;;2.10;0.70;;;;;;;20.31;45.20;96637.22;4859998;29;20088;-77
2022/06/09 13:51:59;;;;;;;3.25;0.70;;;;;;;20.32;45.29;96638.84;4851579;29;20512;-77
2022/06/09 13:54:31;;;;;;;3.50;0.70;;;;;;;20.32;46.45;96644.13;4859354;29;20080;-77
2022/06/09 13:56:59;;;;;;;2.65;0.68;;;;;;;20.29;46.78;96640.13;4866380;29;20077;-77
2022/06/09 13:59:27;;;;;;;2.88;0.70;;;;;;;20.25;46.93;96656.75;4863922;29;20046;-77
2022/06/09 14:01:54;;;;;;;1.42;0.93;;;;;;;20.22;47.37;96649.25;4849041;29;20591;-78
2022/06/09 14:04:29;;;;;;;2.13;0.80;;;;;;;20.17;46.55;96648.13;4848879;29;20092;-77
2022/06/09 14:06:56;;;;;;;3.95;0.90;;;;;;;20.19;46.73;96644.47;4847980;29;20050;-77
2022/06/09 14:09:24;;;;;;;1.88;0.50;;;;;;;20.20;45.66;96648.69;4847449;29;20058;-77
2022/06/09 14:11:53;;;;;;;3.33;0.70;;;;;;;20.22;48.37;96654.56;4847861;29;20141;-78
2022/06/09 14:14:41;;;;;;;3.63;0.80;;;;;;;20.26;47.24;96658.34;4847424;29;20057;-77
2022/06/09 14:17:18;;;;;;;1.33;0.70;;;;;;;20.30;46.71;96656.81;4847669;29;20136;-78
2022/06/09 14:19:45;;;;;;;4.38;1.08;;;;;;;20.34;45.51;96663.25;4847569;29;20136;-77
2022/06/09 14:22:13;;;;;;;4.57;1.05;;;;;;;20.38;45.40;96659.06;4847252;29;20057;-76
2022/06/09 14:24:41;;;;;;;4.93;0.90;;;;;;;20.38;44.64;96661.72;4846628;29;20419;-77
2022/06/09 14:27:12;;;;;;;5.32;0.63;;;;;;;20.38;43.55;96673.09;4844106;29;20533;-77
2022/06/09 14:29:40;;;;;;;0.53;0.40;;;;;;;20.38;45.17;96677.59;4845134;29;20145;-78
2022/06/09 14:32:15;;;;;;;3.88;1.20;;;;;;;20.37;44.46;96673.34;4844319;29;20140;-77
2022/06/09 14:34:43;;;;;;;4.78;1.08;;;;;;;20.37;45.92;96683.94;4844716;29;20140;-77
2022/06/09 14:37:13;;;;;;;2.00;0.47;;;;;;;20.34;44.74;96674.63;4844416;29;20508;-77
2022/06/09 14:39:41;;;;;;;1.85;0.70;;;;;;;20.33;44.26;96674.84;4844358;29;20203;-77
2022/06/09 14:42:12;;;;;;;2.20;0.80;;;;;;;20.31;45.48;96682.25;4844329;29;20489;-77
2022/06/09 14:44:40;;;;;;;3.10;0.95;;;;;;;20.32;44.79;96681.22;4844394;29;20556;-77
2022/06/09 14:47:12;;;;;;;1.10;0.55;;;;;;;20.34;44.58;96679.13;4844509;29;20050;-77
2022/06/09 14:49:40;;;;;;;3.75;1.00;;;;;;;20.36;45.96;96685.78;4844381;29;20126;-76
2022/06/09 14:52:08;;;;;;;4.38;0.80;;;;;;;20.32;45.79;96686.50;4844277;29;20136;-77
2022/06/09 14:54:36;;;;;;;3.45;0.70;;;;;;;20.32;47.19;96694.47;4844422;29;20136;-77
2022/06/09 14:57:04;;;;;;;2.60;0.50;;;;;;;20.28;45.36;96693.34;4844105;29;20502;-77
2022/06/09 14:59:33;;;;;;;1.73;0.75;;;;;;;20.24;45.94;96693.00;4844255;29;20177;-77
2022/06/09 15:02:00;;;;;;;2.38;0.75;;;;;;;20.22;43.89;96686.34;4843949;29;20148;-77
2022/06/09 15:04:28;;;;;;;2.05;0.68;;;;;;;20.24;44.08;96690.34;4843767;29;20046;-77
2022/06/09 15:06:56;;;;;;;1.55;0.65;;;;;;;20.28;43.40;96683.53;4844181;29;20140;-77
2022/06/09 15:09:26;;;;;;;2.92;0.70;;;;;;;20.31;44.78;96683.06;4844091;29;20058;-77
2022/06/09 15:11:54;;;;;;;2.90;0.95;;;;;;;20.31;44.80;96685.72;4843130;29;20489;-77
2022/06/09 15:14:21;;;;;;;4.07;0.70;;;;;;;20.30;44.70;96680.66;4843757;29;20050;-77
2022/06/09 15:17:01;;;;;;;3.50;0.80;;;;;;;20.30;45.35;96689.41;4843527;29;20057;-78
2022/06/09 15:19:29;;;;;;;2.40;0.95;;;;;;;20.29;44.71;96682.50;4843743;29;20050;-77
2022/06/09 15:21:56;;;;;;;1.48;0.70;;;;;;;20.27;44.51;96692.53;4843406;29;20489;-77
2022/06/09 15:24:24;;;;;;;0.88;0.55;;;;;;;20.27;46.14;96694.38;4843711;29;20144;-77
2022/06/09 15:37:34;;;;;;;2.92;1.10;;;;;;;20.20;45.07;96710.41;4876445;23;20533;-82
2022/06/09 15:40:02;;;;;;;2.10;0.60;;;;;;;20.22;45.03;96699.59;4869404;29;20423;-82
2022/06/09 15:42:29;;;;;;;2.13;0.80;;;;;;;20.24;45.13;96706.25;4868439;29;20060;-82
2022/06/09 15:44:57;;;;;;;2.20;1.00;;;;;;;20.26;46.76;96717.41;4867346;29;20101;-83
2022/06/09 15:47:24;;;;;;;3.20;0.88;;;;;;;20.27;46.38;96716.38;4868271;29;20080;-81
2022/06/09 15:49:52;;;;;;;3.15;0.80;;;;;;;20.28;44.92;96719.81;4867910;29;20053;-79
2022/06/09 15:52:20;;;;;;;2.65;0.88;;;;;;;20.29;46.25;96713.47;4867171;29;20057;-79
2022/06/09 15:54:49;;;;;;;2.92;0.88;;;;;;;20.30;44.28;96717.75;4868867;29;20133;-79
2022/06/09 15:57:16;;;;;;;1.35;0.60;;;;;;;20.32;45.28;96718.31;4867780;29;20117;-79
2022/06/09 15:59:44;;;;;;;3.22;1.30;;;;;;;20.31;43.91;96717.50;4867683;29;20067;-80
2022/06/09 16:02:11;;;;;;;4.32;0.68;;;;;;;20.29;45.00;96718.78;4867324;29;20081;-80
2022/06/09 16:04:41;;;;;;;2.83;1.00;;;;;;;20.28;45.53;96712.66;4868049;29;20050;-79
2022/06/09 16:07:10;;;;;;;3.72;0.85;;;;;;;20.26;45.02;96721.91;4867802;29;20086;-85
2022/06/09 16:09:38;;;;;;;2.80;0.75;;;;;;;20.25;45.28;96721.13;4864783;29;20056;-83
2022/06/09 16:12:08;;;;;;;2.20;0.73;;;;;;;20.24;44.38;96726.63;4864617;29;20121;-86
2022/06/09 16:14:36;;;;;;;2.72;0.80;;;;;;;20.25;45.19;96733.56;4866681;29;20132;-80
2022/06/09 16:17:04;;;;;;;4.18;0.90;;;;;;;20.25;44.46;96730.91;4866012;29;20135;-80
2022/06/09 16:19:32;;;;;;;3.08;0.80;;;;;;;20.25;46.38;96736.22;4866687;29;20088;-82
2022/06/09 16:22:00;;;;;;;3.90;0.70;;;;;;;20.24;46.53;96737.25;4866097;29;20559;-80
2022/06/09 16:24:27;;;;;;;1.17;0.60;;;;;;;20.22;45.86;96744.63;4865824;29;20132;-83
2022/06/09 16:26:56;;;;;;;3.22;0.80;;;;;;;20.22;45.65;96739.31;4865852;29;20086;-80
2022/06/09 16:29:25;;;;;;;3.35;1.20;;;;;;;20.23;47.41;96739.09;4866248;29;20063;-85
2022/06/09 16:31:52;;;;;;;2.50;1.17;;;;;;;20.27;46.61;96747.34;4867596;29;20136;-82
2022/06/09 16:34:20;;;;;;;3.10;1.45;;;;;;;20.31;46.08;96743.16;4867021;29;20534;-81
2022/06/09 16:36:48;;;;;;;5.57;1.00;;;;;;;20.34;46.37;96758.59;4867290;29;20098;-83
2022/06/09 16:39:16;;;;;;;2.70;1.00;;;;;;;20.37;47.51;96748.31;4867913;29;20081;-81
2022/06/09 16:41:43;;;;;;;4.32;1.13;;;;;;;20.42;46.71;96763.47;4868121;29;20106;-84
2022/06/09 16:44:11;;;;;;;1.30;1.13;;;;;;;20.42;47.86;96760.03;4868598;29;20081;-83
2022/06/09 16:46:40;;;;;;;5.88;1.65;;;;;;;20.42;47.56;96768.78;4868375;29;20054;-84
2022/06/09 16:49:08;;;;;;;4.53;1.23;;;;;;;20.41;47.40;96775.13;4868567;29;20057;-83
2022/06/09 16:51:35;;;;;;;4.10;1.17;;;;;;;20.41;46.89;96769.03;4869389;29;20065;-82
2022/06/09 16:54:03;;;;;;;1.88;0.93;;;;;;;20.38;47.20;96773.78;4868467;29;20489;-84
2022/06/09 16:56:34;;;;;;;2.08;0.70;;;;;;;20.37;46.93;96779.31;4868030;29;20053;-85
2022/06/09 16:59:02;;;;;;;3.70;0.88;;;;;;;20.34;47.56;96785.91;4868037;29;20159;-85
2022/06/09 17:01:29;;;;;;;1.67;0.80;;;;;;;20.33;46.09;96783.47;4867802;29;20080;-82
2022/06/09 17:03:58;;;;;;;1.55;0.77;;;;;;;20.29;45.98;96790.28;4867484;29;20064;-86
2022/06/09 17:06:26;;;;;;;2.38;0.60;;;;;;;20.27;45.74;96779.13;4868799;29;20115;-83
2022/06/09 17:08:53;;;;;;;2.05;0.52;;;;;;;20.26;45.36;96786.28;4867471;29;20431;-82
2022/06/09 17:11:35;;;;;;;3.03;0.75;;;;;;;20.25;44.69;96789.19;4873251;29;20057;-83
2022/06/09 17:14:03;;;;;;;1.75;0.70;;;;;;;20.23;48.05;96796.56;4868868;29;20559;-85
2022/06/09 17:19:54;;;;;;;1.25;0.63;;;;;;;20.19;46.78;96808.69;4881488;29;20064;-85
2022/06/09 17:22:22;;;;;;;1.40;0.65;;;;;;;20.17;45.86;96801.75;4864600;29;20448;-86
2022/06/09 17:24:51;;;;;;;2.28;0.40;;;;;;;20.19;45.89;96814.75;4868257;29;20054;-84
2022/06/09 17:27:19;;;;;;;1.27;0.30;;;;;;;20.18;45.83;96821.09;4868622;29;20050;-79
2022/06/09 17:29:46;;;;;;;2.33;1.05;;;;;;;20.17;45.40;96822.94;4868348;29;20117;-82
2022/06/09 17:32:14;;;;;;;1.88;0.60;;;;;;;20.13;44.67;96832.41;4870575;29;20523;-82
2022/06/09 17:34:41;;;;;;;1.88;0.60;;;;;;;20.09;44.79;96831.25;4868915;29;20089;-85
2022/06/09 17:37:12;;;;;;;2.67;0.55;;;;;;;20.04;44.92;96835.66;4877449;29;20105;-85
2022/06/09 17:39:40;;;;;;;1.38;0.68;;;;;;;20.01;45.19;96836.94;4870569;29;20118;-85
2022/06/09 17:42:09;;;;;;;1.35;0.57;;;;;;;19.97;45.59;96838.47;4889308;29;20049;-85
2022/06/09 17:44:36;;;;;;;1.05;0.38;;;;;;;19.94;45.13;96841.56;4891453;29;20053;-83
2022/06/09 17:47:05;;;;;;;0.45;0.30;;;;;;;19.87;45.30;96843.53;4877998;29;20045;-87
2022/06/09 17:49:33;;;;;;;1.95;0.55;;;;;;;19.83;45.75;96853.00;4873956;29;20049;-86
2022/06/09 17:52:00;;;;;;;2.45;0.38;;;;;;;19.81;45.62;96857.72;4875490;29;20078;-84
2022/06/09 17:54:29;;;;;;;2.25;1.35;;;;;;;19.79;46.90;96863.25;4889716;29;20052;-84
2022/06/09 17:57:03;;;;;;;2.85;1.17;;;;;;;19.78;46.32;96863.50;4873062;29;20051;-88
2022/06/09 17:59:31;;;;;;;3.20;0.95;;;;;;;19.74;46.59;96865.78;4879314;29;20057;-86
2022/06/09 18:01:59;;;;;;;2.55;0.90;;;;;;;19.72;47.16;96879.28;4879159;29;20046;-86
2022/06/09 18:04:26;;;;;;;2.13;0.75;;;;;;;19.72;49.06;96889.88;4871437;29;20061;-84
2022/06/09 18:06:54;;;;;;;1.98;0.70;;;;;;;19.65;47.95;96889.13;4874341;29;20612;-82
2022/06/09 18:09:22;;;;;;;2.20;0.80;;;;;;;19.60;50.19;96894.31;4888837;29;20139;-85
2022/06/09 18:11:51;;;;;;;4.13;1.20;;;;;;;19.55;49.39;96902.16;4883886;29;20061;-85
2022/06/09 18:14:19;;;;;;;2.35;0.90;;;;;;;19.47;49.50;96910.44;4889487;29;20141;-81
2022/06/09 18:16:47;;;;;;;4.38;0.82;;;;;;;19.39;50.80;96910.78;4878827;29;20512;-80
2022/06/09 18:19:14;;;;;;;2.97;1.08;;;;;;;19.30;50.34;96916.41;4872026;29;20543;-82
2022/06/09 18:21:42;;;;;;;2.50;0.73;;;;;;;19.21;50.12;96919.63;4885080;29;20113;-82
2022/06/09 18:24:10;;;;;;;6.15;1.10;;;;;;;19.12;50.34;96925.25;4889929;29;20113;-82
2022/06/09 18:26:38;;;;;;;4.70;0.90;;;;;;;19.05;50.66;96926.41;4874164;29;20083;-83
2022/06/09 18:29:07;;;;;;;4.70;1.05;;;;;;;18.97;50.45;96942.59;4881208;29;20077;-84
2022/06/09 18:31:35;;;;;;;1.85;0.57;;;;;;;18.90;52.31;96938.19;4888445;29;20093;-87
2022/06/09 18:34:02;;;;;;;2.42;0.73;;;;;;;18.85;51.48;96943.38;4876646;29;20046;-82
2022/06/09 18:36:30;;;;;;;3.15;0.95;;;;;;;18.81;52.37;96946.69;4873318;29;20503;-75
2022/06/09 18:38:58;;;;;;;1.45;0.70;;;;;;;18.74;52.37;96944.91;4851444;29;20448;-84
2022/06/09 18:41:25;;;;;;;1.95;1.08;;;;;;;18.71;53.33;96950.63;4860398;29;20120;-82
2022/06/09 18:43:53;;;;;;;2.15;0.82;;;;;;;18.66;52.39;96955.78;4892302;29;20090;-85
2022/06/09 18:46:22;;;;;;;3.50;0.80;;;;;;;18.62;52.16;96956.47;4875448;29;20078;-82
2022/06/09 18:48:50;;;;;;;4.85;1.10;;;;;;;18.57;53.34;96959.78;4875401;29;20083;-80
2022/06/09 18:51:17;;;;;;;3.60;0.90;;;;;;;18.53;53.62;96962.06;4874451;29;20598;-83
2022/06/09 18:53:45;;;;;;;2.15;0.90;;;;;;;18.50;53.91;96964.34;4874582;29;20132;-81
2022/06/09 18:56:15;;;;;;;3.72;1.00;;;;;;;18.46;52.91;96968.47;4884261;29;20466;-85
2022/06/09 18:58:43;;;;;;;3.17;1.23;;;;;;;18.39;52.62;96971.19;4892856;29;20113;-86
2022/06/09 19:01:11;;;;;;;4.70;1.08;;;;;;;18.34;54.02;96978.97;4854747;29;20081;-81
2022/06/09 19:03:41;;;;;;;1.95;1.13;;;;;;;18.30;54.39;96980.41;4872868;29;20508;-82
2022/06/09 19:06:12;;;;;;;3.72;1.88;;;;;;;18.28;55.32;96985.16;4883916;29;20053;-82
2022/06/09 19:08:41;;;;;;;7.80;5.38;;;;;;;18.25;55.43;96982.94;4878810;29;20057;-79
2022/06/09 19:11:12;;;;;;;2.10;1.17;;;;;;;18.23;56.21;96988.41;4889734;29;20293;-79
2022/06/09 19:13:40;;;;;;;1.33;0.82;;;;;;;18.20;54.09;96988.06;4882877;29;20136;-84
2022/06/09 19:16:08;;;;;;;2.97;1.25;;;;;;;18.17;54.51;96989.31;4874767;29;20144;-79
2022/06/09 19:18:36;;;;;;;2.72;1.40;;;;;;;18.17;56.27;96997.25;4869698;29;20061;-82
2022/06/09 19:21:05;;;;;;;1.73;0.63;;;;;;;18.14;55.21;96996.88;4870261;29;20125;-79
2022/06/09 19:23:33;;;;;;;1.45;0.70;;;;;;;18.10;55.23;96993.84;4872752;29;20271;-78
2022/06/09 19:26:02;;;;;;;2.28;0.77;;;;;;;18.07;56.43;97000.38;4872165;29;20136;-81
2022/06/09 19:28:32;;;;;;;4.60;1.02;;;;;;;18.04;56.58;97000.84;4872126;29;20499;-83
2022/06/09 19:31:00;;;;;;;2.72;1.00;;;;;;;18.01;56.49;97011.00;4867472;29;20053;-80
2022/06/09 19:33:27;;;;;;;2.50;0.88;;;;;;;17.97;56.83;97015.91;4879327;29;20054;-80
2022/06/09 19:35:58;;;;;;;2.28;0.80;;;;;;;17.95;57.17;97018.00;4883556;29;20131;-78
2022/06/09 19:38:28;;;;;;;1.60;0.88;;;;;;;17.92;56.64;97023.69;4886133;29;20160;-83
2022/06/09 19:41:00;;;;;;;2.55;0.65;;;;;;;17.87;55.94;97031.47;4885610;29;20049;-81
2022/06/09 19:43:29;;;;;;;2.97;0.75;;;;;;;17.84;56.82;97035.34;4886520;29;20105;-85
2022/06/09 19:45:57;;;;;;;2.33;1.08;;;;;;;17.83;56.54;97041.63;4882862;29;20049;-84
2022/06/09 19:48:25;;;;;;;1.75;0.95;;;;;;;17.81;56.29;97045.47;4881251;29;20096;-81
2022/06/09 19:50:54;;;;;;;1.83;0.90;;;;;;;17.82;59.29;97044.47;4888052;29;20464;-83
2022/06/09 19:53:24;;;;;;;1.73;0.63;;;;;;;17.83;58.07;97052.19;4892340;29;20086;-87
2022/06/09 19:55:55;;;;;;;2.67;1.20;;;;;;;17.85;60.00;97054.63;4892430;29;20511;-83
2022/06/09 19:58:28;;;;;;;2.45;1.00;;;;;;;17.84;57.76;97053.81;4876657;29;20084;-88
2022/06/09 20:00:56;;;;;;;4.40;1.10;;;;;;;17.82;58.63;97063.78;4878000;29;20057;-84
2022/06/09 20:03:24;;;;;;;3.00;1.02;;;;;;;17.78;55.91;97070.47;4894498;29;20097;-88
2022/06/09 20:05:52;;;;;;;2.13;1.05;;;;;;;17.76;59.67;97072.53;4893297;29;20423;-89
2022/06/09 20:08:21;;;;;;;1.90;1.35;;;;;;;17.74;58.66;97079.84;4893115;29;20148;-79
2022/06/09 20:10:49;;;;;;;3.60;1.20;;;;;;;17.74;60.68;97089.59;4892640;29;20080;-82
2022/06/09 20:13:19;;;;;;;7.60;1.50;;;;;;;17.71;58.46;97089.00;4892574;29;20472;-82
2022/06/09 20:15:47;;;;;;;3.30;0.80;;;;;;;17.65;57.15;97087.22;4893572;29;20056;-78
2022/06/09 20:18:18;;;;;;;3.17;1.30;;;;;;;17.65;61.39;97094.31;4891508;29;20232;-79
2022/06/09 20:20:47;;;;;;;36.03;23.33;;;;;;;17.65;59.84;97095.13;4890956;29;20428;-85
2022/06/09 20:23:15;;;;;;;35.28;24.00;;;;;;;17.64;61.07;97101.41;4888214;29;20064;-82
2022/06/09 20:25:46;;;;;;;6.13;3.90;;;;;;;17.64;60.25;97101.41;4875808;29;20527;-80
2022/06/09 20:28:21;;;;;;;11.00;9.15;;;;;;;17.65;61.24;97102.25;4871995;29;20109;-82
2022/06/09 20:30:50;;;;;;;21.52;15.10;;;;;;;17.66;61.15;97109.91;4870616;29;20072;-82
2022/06/09 20:33:18;;;;;;;4.35;2.65;;;;;;;17.62;57.45;97114.03;4869202;29;20061;-80
2022/06/09 20:35:46;;;;;;;4.68;1.65;;;;;;;17.57;58.06;97100.66;4868191;29;20049;-81
2022/06/09 20:38:18;;;;;;;1.45;1.00;;;;;;;17.58;58.29;97107.56;4868069;29;20114;-78
2022/06/09 20:40:46;;;;;;;1.80;0.90;;;;;;;17.60;61.00;97102.88;4867369;29;20093;-79
2022/06/09 20:43:14;;;;;;;1.92;1.00;;;;;;;17.58;59.17;97099.66;4867521;29;20136;-78
2022/06/09 20:45:44;;;;;;;2.78;1.00;;;;;;;17.54;60.29;97106.38;4865987;29;20084;-80
2022/06/09 20:48:18;;;;;;;1.90;0.90;;;;;;;17.53;59.53;97107.38;4866509;29;20572;-78
2022/06/09 20:50:47;;;;;;;2.10;1.08;;;;;;;17.53;61.29;97110.03;4867646;29;20057;-78
2022/06/09 20:53:17;;;;;;;4.15;1.13;;;;;;;17.53;61.84;97119.78;4868386;29;20084;-78
2022/06/09 20:55:47;;;;;;;2.38;1.15;;;;;;;17.53;62.35;97115.28;4867848;29;20057;-79
2022/06/09 20:58:14;;;;;;;2.13;1.00;;;;;;;17.51;61.30;97117.34;4868462;29;20076;-78
2022/06/09 21:00:44;;;;;;;1.63;0.90;;;;;;;17.50;62.85;97121.00;4871076;29;20057;-78
2022/06/09 21:03:11;;;;;;;2.15;0.90;;;;;;;17.49;62.50;97114.94;4872659;29;20053;-79
2022/06/09 21:05:40;;;;;;;1.33;0.90;;;;;;;17.49;61.91;97119.38;4884393;29;20121;-80